Sand Springs, Montana
Current Conditions -  °F | °C
As of 6:40 PM on Monday 22 Dec 2014 (Local Time) from KMVH Reporting Station
Broken Clouds Broken Clouds  
Wind Chill: -7°   Ceiling: 4500
Heat Index:   Visibility: 10mi
Dew Point: -6°   Wind: 25mph
Humidity: 64%   Direction: 320°NW
Pressure: 29.96"   Gusts: 33mph
Location:  47.1°N, 107.49°W
Report Text: KMVH 230140Z AUTO 32022G29KT 10SM BKN045 BKN050 BKN060 M00/M06 A2996 RMK A01
Loading
Personal Weather Stations






























Interactive Weather Map New forecast layout! Learn more

10-Day Weather Forecast

Advertisements
Track Severe Weather on mobile